createdAt,value
2022-10-11T00:00:28.269Z,88.86
2022-10-11T00:01:37.453Z,90.33
2022-10-11T00:02:46.623Z,90.33
2022-10-11T00:05:04.964Z,88.86
2022-10-11T00:06:13.162Z,91.06
2022-10-11T00:07:21.347Z,91.06
2022-10-11T00:08:30.519Z,91.79
2022-10-11T00:09:39.730Z,92.77
2022-10-11T00:10:48.857Z,89.11
2022-10-11T00:11:58.067Z,90.33
2022-10-11T00:13:07.220Z,90.08
2022-10-11T00:14:16.382Z,92.28
2022-10-11T00:15:25.559Z,92.28
2022-10-11T00:16:34.769Z,92.04
2022-10-11T00:17:43.909Z,92.77
2022-10-11T00:18:52.105Z,94.48
2022-10-11T00:20:00.291Z,94.72
2022-10-11T00:21:09.467Z,92.77
2022-10-11T00:22:18.626Z,93.26
2022-10-11T00:23:27.804Z,94.72
2022-10-11T00:24:36.981Z,92.04
2022-10-11T00:25:46.152Z,93.5
2022-10-11T00:26:55.322Z,93.5
2022-10-11T00:28:04.503Z,92.77
2022-10-11T00:29:13.666Z,95.21
2022-10-11T00:30:22.851Z,93.75
2022-10-11T00:31:32.014Z,94.23
2022-10-11T00:32:41.190Z,94.97
2022-10-11T00:34:59.535Z,94.97
2022-10-11T00:36:07.717Z,93.75
2022-10-11T00:37:16.893Z,95.45
2022-10-11T00:38:26.082Z,93.75
2022-10-11T00:39:35.237Z,96.92
2022-10-11T00:40:44.420Z,96.92
2022-10-11T00:41:53.588Z,97.65
2022-10-11T00:43:02.756Z,96.92
2022-10-11T00:44:11.931Z,97.41
2022-10-11T00:45:21.098Z,97.65
2022-10-11T00:46:30.274Z,99.12
2022-10-11T00:47:39.453Z,97.9
2022-10-11T00:48:48.636Z,97.41
2022-10-11T00:49:57.797Z,98.38
2022-10-11T00:51:06.058Z,98.63
2022-10-11T00:52:15.163Z,97.41
2022-10-11T00:53:24.349Z,97.65
2022-10-11T00:54:33.497Z,98.14
2022-10-11T00:55:42.683Z,99.36
2022-10-11T00:56:51.851Z,98.63
2022-10-11T00:58:01.067Z,98.14
2022-10-11T00:59:10.199Z,96.92
2022-10-11T01:00:19.363Z,99.6
2022-10-11T01:01:28.549Z,97.16
2022-10-11T01:02:37.728Z,98.38
2022-10-11T01:03:46.897Z,94.72
2022-10-11T01:04:56.065Z,95.94
2022-10-11T01:06:04.247Z,94.72
2022-10-11T01:07:13.424Z,95.94
2022-10-11T01:08:22.596Z,93.99
2022-10-11T01:09:31.766Z,94.23
2022-10-11T01:10:40.970Z,93.5
2022-10-11T01:11:50.116Z,93.75
2022-10-11T01:12:59.286Z,93.75
2022-10-11T01:14:08.459Z,92.04
2022-10-11T01:15:17.633Z,92.77
2022-10-11T01:16:26.800Z,92.04
2022-10-11T01:17:35.991Z,91.79
2022-10-11T01:18:45.151Z,92.28
2022-10-11T01:19:54.323Z,93.75
2022-10-11T01:21:02.526Z,93.5
2022-10-11T01:22:11.690Z,92.28
2022-10-11T01:23:20.861Z,92.04
2022-10-11T01:26:48.384Z,91.55
2022-10-11T01:27:57.544Z,90.57
2022-10-11T01:29:06.754Z,90.33
2022-10-11T01:30:15.954Z,91.3
2022-10-11T01:32:34.247Z,90.08
2022-10-11T01:33:42.431Z,93.26
2022-10-11T01:34:50.655Z,90.82
2022-10-11T01:35:59.792Z,89.35
2022-10-11T01:37:08.983Z,87.89
2022-10-11T01:38:18.181Z,88.86
2022-10-11T01:39:27.327Z,89.11
2022-10-11T01:40:36.485Z,88.37
2022-10-11T01:41:45.659Z,88.86
2022-10-11T01:42:54.870Z,88.62
2022-10-11T01:44:04.004Z,87.4
2022-10-11T01:45:13.186Z,88.13
2022-10-11T01:46:22.358Z,87.89
2022-10-11T01:47:30.547Z,87.15
2022-10-11T01:48:38.731Z,86.91
2022-10-11T01:50:57.074Z,88.37
2022-10-11T01:52:06.250Z,88.86
2022-10-11T01:53:15.445Z,89.35
2022-10-11T01:54:24.603Z,87.64
2022-10-11T01:55:33.766Z,86.18
2022-10-11T01:57:52.127Z,87.15
2022-10-11T01:59:01.288Z,86.18
2022-10-11T02:00:10.459Z,86.42
2022-10-11T02:01:19.632Z,86.18
2022-10-11T02:03:37.006Z,86.18
2022-10-11T02:04:45.192Z,85.44
2022-10-11T02:05:53.395Z,86.42
2022-10-11T02:07:02.561Z,84.71
2022-10-11T02:08:11.733Z,86.66
2022-10-11T02:09:20.897Z,85.2
2022-10-11T02:11:39.304Z,85.93
2022-10-11T02:12:48.417Z,85.44
2022-10-11T02:13:57.591Z,85.44
2022-10-11T02:15:06.770Z,85.93
2022-10-11T02:16:15.953Z,85.93
2022-10-11T02:17:25.114Z,85.44
2022-10-11T02:18:34.282Z,85.2
2022-10-11T02:19:43.454Z,85.44
2022-10-11T02:20:51.650Z,84.71
2022-10-11T02:22:00.819Z,84.71
2022-10-11T02:23:09.994Z,85.69
2022-10-11T02:24:19.161Z,86.42
2022-10-11T02:25:28.348Z,86.18
2022-10-11T02:26:36.524Z,86.42
2022-10-11T02:27:45.697Z,87.89
2022-10-11T02:28:54.880Z,87.4
2022-10-11T02:30:03.067Z,87.15
2022-10-11T02:31:11.279Z,88.37
2022-10-11T02:32:20.420Z,89.35
2022-10-11T02:33:29.622Z,88.62
2022-10-11T02:34:38.801Z,89.11
2022-10-11T02:35:47.943Z,88.86
2022-10-11T02:36:57.127Z,89.11
2022-10-11T02:38:06.298Z,89.35
2022-10-11T02:39:15.546Z,90.33
2022-10-11T02:40:24.650Z,91.3
2022-10-11T02:41:33.839Z,91.55
2022-10-11T02:42:42.986Z,92.28
2022-10-11T02:45:01.334Z,93.01
2022-10-11T02:46:09.527Z,97.16
2022-10-11T02:48:26.895Z,95.94
2022-10-11T02:49:36.051Z,95.45
2022-10-11T02:50:44.258Z,96.92
2022-10-11T02:53:01.658Z,96.19
2022-10-11T02:54:10.807Z,97.16
2022-10-11T02:55:19.970Z,98.63
2022-10-11T02:56:29.246Z,97.9
2022-10-11T02:57:38.329Z,97.16
2022-10-11T02:59:56.655Z,97.41
2022-10-11T03:01:05.825Z,95.7
2022-10-11T03:02:15.048Z,97.9
2022-10-11T03:03:24.177Z,96.92
2022-10-11T03:05:42.522Z,95.21
2022-10-11T03:06:50.711Z,93.75
2022-10-11T03:07:58.901Z,95.45
2022-10-11T03:09:08.073Z,94.72
2022-10-11T03:10:17.241Z,94.48
2022-10-11T03:11:26.428Z,96.92
2022-10-11T03:12:35.628Z,93.75
2022-10-11T03:13:44.773Z,92.28
2022-10-11T03:14:53.933Z,93.5
2022-10-11T03:16:03.199Z,91.55
2022-10-11T03:17:12.280Z,91.55
2022-10-11T03:18:21.469Z,91.55
2022-10-11T03:19:29.642Z,93.5
2022-10-11T03:20:37.839Z,90.33
2022-10-11T03:21:47.017Z,89.84
2022-10-11T03:22:56.203Z,89.35
2022-10-11T03:24:05.359Z,89.35
2022-10-11T03:25:14.554Z,90.08
2022-10-11T03:26:23.767Z,87.89
2022-10-11T03:27:32.870Z,88.37
2022-10-11T03:31:00.401Z,88.13
2022-10-11T03:32:09.562Z,86.66
2022-10-11T03:34:27.922Z,87.4
2022-10-11T03:36:45.287Z,87.4
2022-10-11T03:37:53.524Z,86.18
2022-10-11T03:39:01.659Z,86.91
2022-10-11T03:40:10.869Z,85.44
2022-10-11T03:41:20.011Z,83.74
2022-10-11T03:42:29.172Z,84.22
2022-10-11T03:43:38.351Z,84.71
2022-10-11T03:44:47.559Z,84.47
2022-10-11T03:45:56.723Z,84.96
2022-10-11T03:47:05.866Z,83.98
2022-10-11T03:48:15.037Z,83.74
2022-10-11T03:49:24.202Z,96.92
2022-10-11T03:50:32.428Z,84.22
2022-10-11T03:51:41.575Z,83.25
2022-10-11T03:52:49.772Z,81.78
2022-10-11T03:53:58.938Z,82.03
2022-10-11T03:55:08.108Z,81.78
2022-10-11T03:56:17.287Z,83
2022-10-11T03:57:26.485Z,83.25
2022-10-11T03:58:35.631Z,81.78
2022-10-11T03:59:44.803Z,85.93
2022-10-11T04:00:53.987Z,83
2022-10-11T04:02:03.147Z,83
2022-10-11T04:03:11.335Z,83.25
2022-10-11T04:04:19.524Z,83.74
2022-10-11T04:05:28.694Z,82.51
2022-10-11T04:06:37.880Z,90.33
2022-10-11T04:07:47.053Z,92.28
2022-10-11T04:08:56.225Z,88.37
2022-10-11T04:10:05.473Z,89.35
2022-10-11T04:11:14.626Z,89.35
2022-10-11T04:12:23.860Z,93.01
2022-10-11T04:13:32.925Z,90.82
2022-10-11T04:14:42.079Z,90.08
2022-10-11T04:15:51.378Z,93.01
2022-10-11T04:18:09.713Z,90.82
2022-10-11T04:19:17.855Z,94.72
2022-10-11T04:20:26.970Z,93.99
2022-10-11T04:22:45.317Z,93.26
2022-10-11T04:23:53.605Z,91.55
2022-10-11T04:25:01.746Z,91.55
2022-10-11T04:26:10.955Z,92.77
2022-10-11T04:27:20.025Z,90.33
2022-10-11T04:28:29.242Z,90.08
2022-10-11T04:29:38.495Z,90.33
2022-10-11T04:30:47.551Z,90.08
2022-10-11T04:31:56.731Z,92.04
2022-10-11T04:33:05.916Z,90.82
2022-10-11T04:34:15.064Z,89.59
2022-10-11T04:35:24.369Z,92.77
2022-10-11T04:36:32.531Z,89.59
2022-10-11T04:37:40.634Z,90.08
2022-10-11T04:38:49.799Z,90.82
2022-10-11T04:39:58.988Z,90.82
2022-10-11T04:41:08.146Z,89.59
2022-10-11T04:42:17.388Z,89.35
2022-10-11T04:43:26.552Z,90.82
2022-10-11T04:44:35.727Z,92.28
2022-10-11T04:45:44.888Z,90.82
2022-10-11T04:46:54.061Z,93.75
2022-10-11T04:48:03.185Z,93.5
2022-10-11T04:49:12.358Z,93.5
2022-10-11T04:50:21.549Z,91.79
2022-10-11T04:51:30.695Z,91.55
2022-10-11T04:53:48.061Z,90.33
2022-10-11T04:54:57.271Z,98.87
2022-10-11T04:56:06.406Z,91.55
2022-10-11T04:57:15.653Z,91.3
2022-10-11T04:58:24.753Z,91.55
2022-10-11T04:59:34.005Z,93.75
2022-10-11T05:00:43.092Z,91.3
2022-10-11T05:01:51.295Z,92.77
2022-10-11T05:04:09.663Z,93.5
2022-10-11T05:05:17.857Z,96.67
2022-10-11T05:06:26.015Z,97.9
2022-10-11T05:07:35.203Z,97.9
2022-10-11T05:08:44.438Z,99.36
2022-10-11T05:09:53.564Z,105.46
2022-10-11T05:11:02.706Z,104
2022-10-11T05:12:11.905Z,105.22
2022-10-11T05:13:21.154Z,103.02
2022-10-11T05:14:30.226Z,105.95
2022-10-11T05:15:39.402Z,105.46
2022-10-11T05:16:48.595Z,103.27
2022-10-11T05:17:57.749Z,105.22
2022-10-11T05:19:06.930Z,103.51
2022-10-11T05:20:16.109Z,102.05
2022-10-11T05:21:24.324Z,102.53
2022-10-11T05:22:33.461Z,102.29
2022-10-11T05:23:42.630Z,104.98
2022-10-11T05:24:51.809Z,102.53
2022-10-11T05:26:01.063Z,107.66
2022-10-11T05:27:10.148Z,108.64
2022-10-11T05:28:19.314Z,107.91
2022-10-11T05:29:28.500Z,106.44
2022-10-11T05:30:37.671Z,107.66
2022-10-11T05:31:46.839Z,106.2
2022-10-11T05:32:56.032Z,108.39
2022-10-11T05:34:05.205Z,105.46
2022-10-11T05:35:14.370Z,106.2
2022-10-11T05:36:22.548Z,106.44
2022-10-11T05:37:31.785Z,106.44
2022-10-11T05:38:40.930Z,105.46
2022-10-11T05:40:59.236Z,104.49
2022-10-11T05:42:08.415Z,104
2022-10-11T05:43:17.640Z,104.73
2022-10-11T05:44:26.766Z,104.49
2022-10-11T05:45:35.917Z,106.93
2022-10-11T05:46:45.104Z,104.98
2022-10-11T05:47:54.295Z,105.95
2022-10-11T05:49:03.449Z,106.93
2022-10-11T05:50:12.654Z,105.22
2022-10-11T05:51:20.812Z,105.46
2022-10-11T05:52:29.983Z,102.53
2022-10-11T05:53:39.169Z,102.78
2022-10-11T05:54:48.335Z,101.31
2022-10-11T05:55:57.496Z,103.02
2022-10-11T05:57:06.667Z,103.75
2022-10-11T05:58:15.847Z,103.51
2022-10-11T05:59:25.016Z,102.53
2022-10-11T06:00:34.202Z,103.02
2022-10-11T06:01:43.363Z,103.02
2022-10-11T06:02:52.531Z,101.8
2022-10-11T06:04:01.731Z,101.07
2022-10-11T06:05:10.909Z,102.53
2022-10-11T06:06:20.057Z,102.29
2022-10-11T06:07:28.246Z,103.27
2022-10-11T06:08:37.417Z,98.38
2022-10-11T06:09:46.587Z,93.75
2022-10-11T06:10:55.783Z,103.27
2022-10-11T06:12:04.984Z,98.63
2022-10-11T06:13:14.107Z,97.65
2022-10-11T06:14:23.293Z,99.6
2022-10-11T06:15:32.451Z,100.09
2022-10-11T06:16:41.621Z,100.09
2022-10-11T06:17:49.827Z,103.51
2022-10-11T06:18:59.083Z,104.98
2022-10-11T06:20:08.172Z,101.8
2022-10-11T06:21:17.377Z,104.73
2022-10-11T06:22:26.504Z,105.95
2022-10-11T06:23:35.685Z,105.71
2022-10-11T06:24:44.852Z,104.49
2022-10-11T06:25:54.119Z,104.49
2022-10-11T06:27:03.190Z,103.27
2022-10-11T06:28:12.364Z,104.98
2022-10-11T06:29:21.545Z,105.46
2022-10-11T06:30:30.717Z,106.2
2022-10-11T06:31:39.890Z,105.71
2022-10-11T06:32:49.073Z,106.93
2022-10-11T06:33:57.323Z,109.13
2022-10-11T06:35:06.429Z,107.91
2022-10-11T06:36:15.597Z,109.86
2022-10-11T06:37:24.817Z,106.68
2022-10-11T06:38:33.937Z,105.22
2022-10-11T06:39:43.119Z,105.46
2022-10-11T06:40:52.291Z,105.71
2022-10-11T06:42:01.485Z,105.22
2022-10-11T06:43:10.672Z,106.44
2022-10-11T06:44:19.826Z,106.44
2022-10-11T06:46:38.149Z,112.06
2022-10-11T06:47:47.327Z,107.91
2022-10-11T06:48:55.674Z,105.71
2022-10-11T06:50:04.831Z,105.46
2022-10-11T06:51:13.864Z,104.24
2022-10-11T06:52:23.161Z,104.98
2022-10-11T06:53:32.356Z,104
2022-10-11T06:54:41.455Z,104.98
2022-10-11T06:55:50.559Z,104.98
2022-10-11T06:56:59.715Z,101.31
2022-10-11T06:58:09.063Z,121.33
2022-10-11T06:59:18.091Z,103.27
2022-10-11T07:00:27.235Z,102.53
2022-10-11T07:01:36.413Z,106.68
2022-10-11T07:03:54.750Z,105.46
2022-10-11T07:05:02.945Z,109.13
2022-10-11T07:06:11.172Z,108.88
2022-10-11T07:07:19.345Z,109.61
2022-10-11T07:08:28.495Z,109.37
2022-10-11T07:09:37.673Z,109.37
2022-10-11T07:11:56.018Z,110.83
2022-10-11T07:13:05.272Z,110.1
2022-10-11T07:14:14.475Z,110.35
2022-10-11T07:15:23.691Z,111.08
2022-10-11T07:16:32.832Z,110.59
2022-10-11T07:17:42.028Z,109.61
2022-10-11T07:18:51.050Z,111.32
2022-10-11T07:20:00.282Z,110.59
2022-10-11T07:21:09.403Z,109.86
2022-10-11T07:22:17.674Z,111.08
2022-10-11T07:23:25.926Z,111.08
2022-10-11T07:24:34.088Z,111.32
2022-10-11T07:25:43.284Z,110.83
2022-10-11T07:26:52.443Z,109.61
2022-10-11T07:28:01.484Z,108.88
2022-10-11T07:29:10.676Z,109.61
2022-10-11T07:30:19.842Z,108.88
2022-10-11T07:31:28.997Z,109.86
2022-10-11T07:32:38.342Z,110.1
2022-10-11T07:33:47.515Z,108.15
2022-10-11T07:34:56.675Z,108.15
2022-10-11T07:36:05.761Z,106.2
2022-10-11T07:37:14.926Z,105.95
2022-10-11T07:38:24.188Z,105.22
2022-10-11T07:39:32.236Z,104.49
2022-10-11T07:40:41.415Z,101.8
2022-10-11T07:41:50.702Z,104
2022-10-11T07:42:59.751Z,102.78
2022-10-11T07:44:09.046Z,102.05
2022-10-11T07:45:18.211Z,99.36
2022-10-11T07:46:27.352Z,112.79
2022-10-11T07:47:36.544Z,99.85
2022-10-11T07:48:45.764Z,101.07
2022-10-11T07:49:54.851Z,99.36
2022-10-11T07:51:04.071Z,98.87
2022-10-11T07:53:22.398Z,101.31
2022-10-11T07:54:30.622Z,101.56
2022-10-11T07:55:39.653Z,103.51
2022-10-11T07:56:48.988Z,102.29
2022-10-11T07:59:07.326Z,102.53
2022-10-11T08:00:16.472Z,103.02
2022-10-11T08:01:25.617Z,101.56
2022-10-11T08:02:34.798Z,103.75
2022-10-11T08:03:44.057Z,101.07
2022-10-11T08:04:53.197Z,101.8
2022-10-11T08:06:02.221Z,103.02
2022-10-11T08:07:11.538Z,104.98
2022-10-11T08:08:20.708Z,100.34
2022-10-11T08:09:28.875Z,104.98
2022-10-11T08:10:38.066Z,103.51
2022-10-11T08:11:47.228Z,104
2022-10-11T08:12:56.395Z,102.29
2022-10-11T08:14:05.593Z,103.02
2022-10-11T08:15:14.744Z,102.53
2022-10-11T08:16:23.897Z,99.6
2022-10-11T08:17:32.997Z,103.02
2022-10-11T08:18:42.141Z,104.73
2022-10-11T08:19:51.434Z,103.51
2022-10-11T08:21:00.581Z,104.73
2022-10-11T08:22:09.760Z,104.24
2022-10-11T08:24:28.101Z,105.22
2022-10-11T08:26:45.476Z,104.24
2022-10-11T08:27:54.656Z,102.05
2022-10-11T08:29:03.826Z,104.98
2022-10-11T08:30:12.855Z,103.27
2022-10-11T08:31:22.021Z,104.98
2022-10-11T08:32:31.274Z,105.46
2022-10-11T08:33:40.371Z,106.68
2022-10-11T08:34:49.677Z,108.39
2022-10-11T08:35:58.716Z,107.17
2022-10-11T08:37:08.021Z,105.22
2022-10-11T08:38:17.065Z,106.44
2022-10-11T08:39:26.399Z,105.95
2022-10-11T08:40:34.459Z,107.17
2022-10-11T08:41:43.745Z,107.17
2022-10-11T08:42:52.919Z,108.15
2022-10-11T08:44:01.931Z,108.64
2022-10-11T08:45:11.301Z,105.22
2022-10-11T08:46:20.424Z,106.44
2022-10-11T08:47:29.487Z,104.98
2022-10-11T08:48:38.638Z,104.24
2022-10-11T08:49:47.805Z,104.98
2022-10-11T08:50:56.975Z,104.49
2022-10-11T08:52:06.145Z,104.24
2022-10-11T08:53:15.325Z,106.2
2022-10-11T08:54:24.486Z,107.17
2022-10-11T08:55:33.664Z,106.44
2022-10-11T08:56:41.849Z,104.98
2022-10-11T08:57:51.022Z,104.49
2022-10-11T08:59:00.188Z,104.73
2022-10-11T09:00:09.371Z,103.51
2022-10-11T09:01:18.542Z,110.59
2022-10-11T09:02:27.777Z,104.24
2022-10-11T09:03:36.876Z,105.46
2022-10-11T09:04:46.061Z,104.73
2022-10-11T09:05:55.254Z,105.22
2022-10-11T09:07:04.407Z,104.24
2022-10-11T09:08:13.568Z,106.44
2022-10-11T09:09:22.737Z,108.88
2022-10-11T09:10:31.916Z,106.44
2022-10-11T09:11:40.107Z,105.46
2022-10-11T09:12:49.279Z,105.22
2022-10-11T09:13:58.487Z,105.71
2022-10-11T09:15:07.629Z,104.98
2022-10-11T09:16:16.790Z,105.46
2022-10-11T09:17:25.976Z,106.44
2022-10-11T09:18:35.142Z,106.44
2022-10-11T09:19:44.314Z,106.68
2022-10-11T09:20:53.533Z,105.22
2022-10-11T09:22:02.664Z,106.2
2022-10-11T09:23:11.829Z,106.44
2022-10-11T09:24:21.008Z,106.93
2022-10-11T09:25:30.178Z,109.61
2022-10-11T09:26:38.367Z,107.42
2022-10-11T09:27:47.650Z,107.66
2022-10-11T09:28:56.821Z,107.66
2022-10-11T09:30:05.883Z,106.44
2022-10-11T09:31:15.058Z,105.71
2022-10-11T09:32:24.221Z,105.22
2022-10-11T09:33:33.420Z,105.22
2022-10-11T09:34:42.579Z,106.93
2022-10-11T09:35:51.741Z,105.71
2022-10-11T09:37:00.913Z,106.2
2022-10-11T09:38:10.094Z,105.95
2022-10-11T09:39:19.254Z,106.44
2022-10-11T09:40:28.432Z,105.46
2022-10-11T09:41:36.627Z,105.71
2022-10-11T09:42:45.796Z,107.66
2022-10-11T09:43:54.963Z,108.88
2022-10-11T09:45:04.155Z,106.44
2022-10-11T09:46:13.442Z,107.91
2022-10-11T09:47:22.495Z,106.93
2022-10-11T09:48:31.661Z,104.73
2022-10-11T09:49:40.833Z,106.2
2022-10-11T09:50:50.112Z,107.17
2022-10-11T09:51:59.211Z,107.17
2022-10-11T09:54:17.520Z,105.71
2022-10-11T09:55:26.703Z,106.2
2022-10-11T09:56:35.857Z,105.22
2022-10-11T09:57:44.061Z,105.71
2022-10-11T09:58:53.220Z,105.22
2022-10-11T10:00:02.446Z,104.73
2022-10-11T10:01:11.586Z,105.95
2022-10-11T10:02:20.780Z,106.44
2022-10-11T10:03:29.913Z,104.24
2022-10-11T10:04:39.222Z,105.71
2022-10-11T10:05:48.272Z,103.75
2022-10-11T10:06:57.438Z,104.73
2022-10-11T10:08:06.594Z,101.8
2022-10-11T10:09:14.794Z,111.81
2022-10-11T10:10:23.965Z,101.07
2022-10-11T10:11:33.137Z,104.98
2022-10-11T10:12:42.386Z,104
2022-10-11T10:13:51.488Z,102.53
2022-10-11T10:15:00.678Z,102.78
2022-10-11T10:16:09.835Z,103.27
2022-10-11T10:17:19.008Z,102.53
2022-10-11T10:18:28.177Z,101.31
2022-10-11T10:19:37.353Z,101.8
2022-10-11T10:20:46.536Z,101.8
2022-10-11T10:21:55.697Z,99.6
2022-10-11T10:23:04.874Z,100.83
2022-10-11T10:24:13.057Z,101.56
2022-10-11T10:25:22.226Z,103.02
2022-10-11T10:26:31.398Z,98.87
2022-10-11T10:27:40.581Z,99.36
2022-10-11T10:28:49.806Z,98.63
2022-10-11T10:29:58.944Z,100.58
2022-10-11T10:31:08.076Z,100.58
2022-10-11T10:32:17.251Z,99.36
2022-10-11T10:33:26.438Z,102.05
2022-10-11T10:34:35.659Z,103.02
2022-10-11T10:35:44.782Z,104
2022-10-11T10:36:53.945Z,106.44
2022-10-11T10:38:03.133Z,106.44
2022-10-11T10:39:11.310Z,105.22
2022-10-11T10:41:29.650Z,108.88
2022-10-11T10:42:38.818Z,108.88
2022-10-11T10:43:47.996Z,108.15
2022-10-11T10:44:57.162Z,103.02
2022-10-11T10:46:06.355Z,104.73
2022-10-11T10:47:15.498Z,104.24
2022-10-11T10:48:24.690Z,102.78
2022-10-11T10:49:33.852Z,104
2022-10-11T10:50:43.036Z,103.75
2022-10-11T10:51:52.194Z,104.98
2022-10-11T10:53:01.364Z,103.27
2022-10-11T10:54:10.549Z,104.24
2022-10-11T10:55:18.722Z,105.46
2022-10-11T10:56:27.891Z,115.23
2022-10-11T10:57:37.075Z,102.78
2022-10-11T10:58:46.238Z,100.09
2022-10-11T10:59:55.409Z,101.8
2022-10-11T11:01:04.582Z,104
2022-10-11T11:02:13.763Z,103.27
2022-10-11T11:03:22.929Z,107.17
2022-10-11T11:04:32.098Z,105.71
2022-10-11T11:05:41.284Z,104.49
2022-10-11T11:06:50.456Z,106.68
2022-10-11T11:07:59.646Z,106.68
2022-10-11T11:09:08.792Z,105.22
2022-10-11T11:10:16.983Z,105.22
2022-10-11T11:11:26.157Z,105.71
2022-10-11T11:12:35.325Z,106.2
2022-10-11T11:13:44.519Z,105.71
2022-10-11T11:14:53.730Z,104.73
2022-10-11T11:16:02.839Z,108.15
2022-10-11T11:17:12.033Z,106.2
2022-10-11T11:18:21.218Z,104.98
2022-10-11T11:19:30.514Z,104.98
2022-10-11T11:20:39.670Z,105.95
2022-10-11T11:21:48.703Z,106.44
2022-10-11T11:22:57.871Z,107.42
2022-10-11T11:24:07.057Z,103.75
2022-10-11T11:25:16.219Z,105.22
2022-10-11T11:26:24.409Z,106.44
2022-10-11T11:27:33.578Z,103.75
2022-10-11T11:28:42.764Z,106.68
2022-10-11T11:29:51.934Z,106.68
2022-10-11T11:31:01.236Z,111.32
2022-10-11T11:32:10.280Z,105.95
2022-10-11T11:33:19.465Z,109.61
2022-10-11T11:34:28.607Z,110.1
2022-10-11T11:35:37.793Z,107.42
2022-10-11T11:36:46.969Z,106.68
2022-10-11T11:37:56.166Z,106.44
2022-10-11T11:39:05.307Z,103.51
2022-10-11T11:40:14.480Z,103.51
2022-10-11T11:41:22.668Z,104.73
2022-10-11T11:42:31.859Z,101.8
2022-10-11T11:43:41.009Z,104.98
2022-10-11T11:44:50.176Z,104.24
2022-10-11T11:45:59.355Z,101.56
2022-10-11T11:47:08.523Z,103.51
2022-10-11T11:48:17.698Z,99.6
2022-10-11T11:49:26.862Z,100.34
2022-10-11T11:50:36.040Z,100.34
2022-10-11T11:51:45.223Z,103.27
2022-10-11T11:52:54.448Z,103.02
2022-10-11T11:54:03.552Z,101.31
2022-10-11T11:55:12.731Z,102.29
2022-10-11T11:56:21.905Z,104.49
2022-10-11T11:57:30.143Z,102.29
2022-10-11T11:58:39.336Z,104.49
2022-10-11T11:59:48.437Z,106.68
2022-10-11T12:00:57.612Z,114.74
2022-10-11T12:02:06.779Z,112.3
2022-10-11T12:03:15.951Z,104
2022-10-11T12:04:25.123Z,106.68
2022-10-11T12:05:34.378Z,107.42
2022-10-11T12:06:43.602Z,104.98
2022-10-11T12:07:52.644Z,114.01
2022-10-11T12:09:01.800Z,102.29
2022-10-11T12:10:10.979Z,100.34
2022-10-11T12:11:20.156Z,108.39
2022-10-11T12:12:28.371Z,104.73
2022-10-11T12:13:37.530Z,100.34
2022-10-11T12:14:46.683Z,100.34
2022-10-11T12:15:55.856Z,101.8
2022-10-11T12:17:05.036Z,103.27
2022-10-11T12:18:14.210Z,102.05
2022-10-11T12:19:23.368Z,102.53
2022-10-11T12:20:32.550Z,102.53
2022-10-11T12:21:41.716Z,103.51
2022-10-11T12:22:50.891Z,102.53
2022-10-11T12:24:00.068Z,103.51
2022-10-11T12:25:09.220Z,101.56
2022-10-11T12:26:18.412Z,102.29
2022-10-11T12:27:26.597Z,104
2022-10-11T12:28:35.763Z,103.75
2022-10-11T12:29:44.936Z,102.53
2022-10-11T12:30:54.211Z,101.8
2022-10-11T12:32:03.278Z,103.51
2022-10-11T12:33:12.503Z,104
2022-10-11T12:34:21.613Z,102.78
2022-10-11T12:35:30.796Z,102.53
2022-10-11T12:36:39.967Z,101.56
2022-10-11T12:37:49.149Z,103.51
2022-10-11T12:38:58.312Z,102.53
2022-10-11T12:40:07.524Z,102.05
2022-10-11T12:41:16.775Z,102.78
2022-10-11T12:42:24.855Z,104.24
2022-10-11T12:43:34.017Z,108.64
2022-10-11T12:44:43.191Z,101.07
2022-10-11T12:45:52.421Z,104.49
2022-10-11T12:47:01.538Z,103.51
2022-10-11T12:48:10.716Z,103.75
2022-10-11T12:49:19.882Z,104.98
2022-10-11T12:50:29.053Z,102.29
2022-10-11T12:51:38.252Z,102.29
2022-10-11T12:52:47.391Z,104.49
2022-10-11T12:53:56.557Z,100.58
2022-10-11T12:55:05.738Z,104
2022-10-11T12:56:14.897Z,104.98
2022-10-11T12:57:23.106Z,103.51
2022-10-11T12:58:32.278Z,104.24
2022-10-11T12:59:41.450Z,104.49
2022-10-11T13:00:50.617Z,104.49
2022-10-11T13:01:59.778Z,102.53
2022-10-11T13:03:08.956Z,104.73
2022-10-11T13:04:18.135Z,101.56
2022-10-11T13:05:27.294Z,100.09
2022-10-11T13:06:36.482Z,99.6
2022-10-11T13:07:45.660Z,100.58
2022-10-11T13:08:54.825Z,104
2022-10-11T13:10:03.998Z,99.6
2022-10-11T13:11:13.162Z,100.34
2022-10-11T13:12:21.346Z,102.05
2022-10-11T13:13:30.523Z,101.07
2022-10-11T13:14:39.687Z,101.31
2022-10-11T13:15:48.867Z,99.36
2022-10-11T13:16:58.044Z,100.58
2022-10-11T13:18:07.222Z,101.07
2022-10-11T13:19:16.379Z,98.63
2022-10-11T13:20:25.580Z,98.87
2022-10-11T13:21:34.730Z,98.87
2022-10-11T13:22:44.001Z,98.14
2022-10-11T13:23:53.084Z,98.63
2022-10-11T13:25:02.249Z,96.67
2022-10-11T13:26:11.422Z,98.14
2022-10-11T13:27:19.605Z,100.58
2022-10-11T13:28:28.775Z,99.12
2022-10-11T13:29:37.946Z,96.67
2022-10-11T13:30:47.114Z,98.38
2022-10-11T13:31:56.296Z,100.58
2022-10-11T13:33:05.486Z,97.41
2022-10-11T13:34:14.638Z,99.85
2022-10-11T13:35:23.827Z,104.98
2022-10-11T13:36:32.993Z,101.56
2022-10-11T13:37:42.146Z,101.8
2022-10-11T13:38:51.331Z,98.63
2022-10-11T13:40:00.496Z,99.6
2022-10-11T13:41:09.669Z,97.9
2022-10-11T13:42:17.997Z,97.65
2022-10-11T13:43:27.137Z,104.24
2022-10-11T13:44:36.196Z,102.29
2022-10-11T13:45:45.374Z,100.58
2022-10-11T13:46:54.562Z,101.31
2022-10-11T13:48:03.714Z,102.78
2022-10-11T13:49:12.877Z,102.78
2022-10-11T13:50:22.067Z,101.07
2022-10-11T13:51:31.235Z,103.51
2022-10-11T13:52:40.407Z,102.53
2022-10-11T13:53:49.578Z,102.29
2022-10-11T13:54:58.746Z,101.8
2022-10-11T13:56:07.953Z,101.8
2022-10-11T13:57:17.100Z,102.78
2022-10-11T13:58:25.285Z,108.15
2022-10-11T13:59:34.455Z,103.02
2022-10-11T14:00:42.659Z,101.8
2022-10-11T14:01:51.836Z,103.27
2022-10-11T14:03:00.999Z,103.51
2022-10-11T14:04:10.260Z,102.05
2022-10-11T14:05:19.340Z,104.49
2022-10-11T14:06:28.509Z,102.78
2022-10-11T14:07:37.686Z,105.46
2022-10-11T14:08:46.890Z,106.68
2022-10-11T14:09:56.018Z,105.22
2022-10-11T14:11:05.197Z,102.78
2022-10-11T14:12:14.385Z,105.46
2022-10-11T14:13:23.547Z,105.71
2022-10-11T14:14:32.727Z,105.71
2022-10-11T14:15:40.908Z,109.86
2022-10-11T14:16:50.078Z,112.06
2022-10-11T14:17:59.243Z,108.39
2022-10-11T14:19:08.420Z,108.39
2022-10-11T14:20:17.583Z,109.13
2022-10-11T14:21:26.785Z,111.08
2022-10-11T14:22:35.935Z,106.2
2022-10-11T14:23:45.110Z,107.91
2022-10-11T14:24:54.284Z,106.44
2022-10-11T14:26:03.452Z,105.22
2022-10-11T14:27:12.627Z,104
2022-10-11T14:28:21.803Z,102.29
2022-10-11T14:29:30.970Z,101.07
2022-10-11T14:30:39.154Z,99.85
2022-10-11T14:31:48.331Z,100.58
2022-10-11T14:32:57.499Z,100.58
2022-10-11T14:34:06.672Z,98.38
2022-10-11T14:35:15.856Z,98.87
2022-10-11T14:36:25.050Z,95.7
2022-10-11T14:37:34.218Z,95.94
2022-10-11T14:38:43.366Z,93.99
2022-10-11T14:39:52.549Z,116.94
2022-10-11T14:41:01.713Z,95.45
2022-10-11T14:42:10.887Z,92.04
2022-10-11T14:43:20.050Z,94.23
2022-10-11T14:44:29.238Z,97.9
2022-10-11T14:46:46.586Z,99.85
2022-10-11T14:47:55.782Z,92.28
2022-10-11T14:49:04.928Z,99.36
2022-10-11T14:50:14.107Z,95.45
2022-10-11T14:51:23.279Z,93.26
2022-10-11T14:52:32.446Z,93.5
2022-10-11T14:53:41.622Z,95.45
2022-10-11T14:54:50.799Z,98.14
2022-10-11T14:56:00.076Z,96.67
2022-10-11T14:57:09.142Z,97.65
2022-10-11T14:58:18.302Z,99.12
2022-10-11T15:00:36.658Z,99.6
2022-10-11T15:01:44.881Z,101.8
2022-10-11T15:02:54.008Z,101.56
2022-10-11T15:04:02.215Z,100.58
2022-10-11T15:05:10.418Z,98.38
2022-10-11T15:06:19.564Z,101.07
2022-10-11T15:07:28.739Z,101.31
2022-10-11T15:08:37.910Z,100.34
2022-10-11T15:09:47.098Z,101.07
2022-10-11T15:10:56.263Z,100.83
2022-10-11T15:12:05.431Z,100.83
2022-10-11T15:13:14.623Z,99.6
2022-10-11T15:14:22.805Z,98.87
2022-10-11T15:15:31.024Z,98.38
2022-10-11T15:16:40.155Z,99.12